Time;durP1;ratioP1;P1;durP2;ratioP2;P2;SDS_P1;SDS_P2;PMS_P1;PMS_P2;Temp;Humidity;BMP_temperature;BMP_pressure;BME280_temperature;BME280_humidity;BME280_pressure;Samples;Min_cycle;Max_cycle;Signal;HPM_P1;HPM_P2
2022/11/02 00:01:42;;;;;;;15.37;1.73;;;;;;;;;;5032917;28;20197;-59
2022/11/02 00:04:08;;;;;;;14.83;1.87;;;;;;;;;;5032984;28;20188;-59
2022/11/02 00:06:34;;;;;;;7.63;1.20;;;;;;;;;;5032666;28;20198;-59
2022/11/02 00:09:00;;;;;;;14.33;1.40;;;;;;;;;;5032300;28;20224;-59
2022/11/02 00:11:26;;;;;;;13.60;1.60;;;;;;;;;;5032987;28;20174;-59
2022/11/02 00:13:52;;;;;;;10.00;1.57;;;;;;;;;;5032267;28;20235;-59
2022/11/02 00:16:19;;;;;;;13.47;1.57;;;10.50;99.90;;;;;;5032288;28;20177;-59
2022/11/02 00:18:47;;;;;;;21.07;1.97;;;10.40;99.90;;;;;;5032789;28;20212;-59
2022/11/02 00:21:15;;;;;;;13.60;1.77;;;;;;;;;;5024765;28;20198;-59
2022/11/02 00:23:41;;;;;;;14.43;1.73;;;;;;;;;;5032444;28;20177;-59
2022/11/02 00:26:07;;;;;;;12.10;1.53;;;;;;;;;;5032547;28;20707;-59
2022/11/02 00:28:33;;;;;;;11.63;1.70;;;;;;;;;;5033015;28;20675;-60
2022/11/02 00:30:59;;;;;;;21.17;2.57;;;;;;;;;;5033196;28;20174;-60
2022/11/02 00:33:25;;;;;;;15.77;1.90;;;;;;;;;;5032624;28;20315;-60
2022/11/02 00:35:53;;;;;;;15.23;1.73;;;;;;;;;;5033093;28;20253;-60
2022/11/02 00:38:19;;;;;;;14.23;1.67;;;;;;;;;;5013816;28;20182;-60
2022/11/02 00:40:45;;;;;;;19.20;2.33;;;;;;;;;;5032366;28;20209;-60
2022/11/02 00:43:11;;;;;;;14.63;1.57;;;;;;;;;;5032474;28;20201;-60
2022/11/02 00:45:37;;;;;;;14.77;1.93;;;;;;;;;;5032123;28;20174;-60
2022/11/02 00:48:03;;;;;;;12.37;1.63;;;;;;;;;;5031861;28;20174;-60
2022/11/02 00:50:29;;;;;;;13.30;2.07;;;;;;;;;;5025643;28;20255;-60
2022/11/02 00:52:55;;;;;;;15.07;2.00;;;;;;;;;;5026188;28;20736;-60
2022/11/02 00:55:22;;;;;;;14.00;1.73;;;;;;;;;;5032309;28;20236;-60
2022/11/02 00:57:48;;;;;;;14.07;1.40;;;;;;;;;;5032138;28;20232;-60
2022/11/02 01:00:14;;;;;;;11.70;1.77;;;;;;;;;;5032223;28;20213;-60
2022/11/02 01:02:41;;;;;;;17.33;1.70;;;;;;;;;;5032319;28;20178;-60
2022/11/02 01:05:08;;;;;;;12.60;1.50;;;10.30;99.90;;;;;;5032394;28;20264;-60
2022/11/02 01:07:34;;;;;;;9.87;1.60;;;;;;;;;;5031742;28;20236;-60
2022/11/02 01:10:00;;;;;;;13.50;1.67;;;;;;;;;;5031534;28;20174;-60
2022/11/02 01:12:26;;;;;;;9.20;1.83;;;;;;;;;;5032065;28;20182;-60
2022/11/02 01:14:52;;;;;;;9.17;1.13;;;;;;;;;;5031514;28;20170;-60
2022/11/02 01:17:19;;;;;;;14.13;1.77;;;;;;;;;;5031887;28;20649;-59
2022/11/02 01:19:45;;;;;;;9.27;1.20;;;;;;;;;;5031469;28;20228;-59
2022/11/02 01:22:11;;;;;;;12.20;1.53;;;;;;;;;;5031782;28;20189;-59
2022/11/02 01:24:37;;;;;;;14.90;1.33;;;;;;;;;;5031066;28;20182;-60
2022/11/02 01:27:03;;;;;;;10.87;1.50;;;;;;;;;;5031684;28;20188;-60
2022/11/02 01:29:29;;;;;;;12.67;1.57;;;;;;;;;;5031525;28;20301;-60
2022/11/02 01:31:55;;;;;;;14.73;1.53;;;;;;;;;;5031697;28;20174;-59
2022/11/02 01:34:21;;;;;;;4.87;0.80;;;10.50;99.90;;;;;;5031681;28;20686;-59
2022/11/02 01:36:47;;;;;;;6.07;1.03;;;;;;;;;;5031501;28;20170;-59
2022/11/02 01:39:14;;;;;;;6.97;1.20;;;;;;;;;;5031422;28;20212;-59
2022/11/02 01:41:40;;;;;;;9.27;1.23;;;;;;;;;;5031649;28;20170;-59
2022/11/02 01:44:28;;;;;;;14.27;1.67;;;10.40;99.90;;;;;;5023749;28;20432;-59
2022/11/02 01:47:02;;;;;;;8.93;1.10;;;10.40;99.90;;;;;;5029546;28;20185;-59
2022/11/02 01:49:28;;;;;;;10.63;1.63;;;;;;;;;;5022236;28;20263;-59
2022/11/02 01:51:57;;;;;;;13.83;2.03;;;10.60;99.90;;;;;;5030941;28;20176;-59
2022/11/02 01:54:28;;;;;;;8.00;0.90;;;10.50;99.90;;;;;;5030765;28;20178;-60
2022/11/02 01:56:59;;;;;;;8.87;1.30;;;10.40;99.90;;;;;;5031254;28;20699;-59
2022/11/02 01:59:32;;;;;;;11.17;1.53;;;10.30;99.90;;;;;;5031102;28;20252;-58
2022/11/02 02:01:58;;;;;;;9.73;1.60;;;;;;;;;;5031318;28;20178;-60
2022/11/02 02:04:26;;;;;;;9.57;1.87;;;;;;;;;;5031318;28;20281;-60
2022/11/02 02:06:56;;;;;;;22.80;2.50;;;10.40;99.90;;;;;;5031048;28;20186;-60
2022/11/02 02:09:22;;;;;;;8.50;1.60;;;;;;;;;;5031013;28;20174;-60
2022/11/02 02:11:49;;;;;;;11.03;1.50;;;;;;;;;;5031014;28;20182;-60
2022/11/02 02:14:18;;;;;;;9.17;1.53;;;;;;;;;;5030930;28;20197;-60
2022/11/02 02:17:03;;;;;;;13.83;1.70;;;;;;;;;;5030313;28;20169;-60
2022/11/02 02:19:29;;;;;;;17.33;3.03;;;;;;;;;;5030659;28;20213;-60
2022/11/02 02:21:55;;;;;;;16.70;1.50;;;;;;;;;;5030523;28;20181;-60
2022/11/02 02:24:32;;;;;;;15.43;1.60;;;;;;;;;;5030722;28;20209;-60
2022/11/02 02:27:25;;;;;;;12.37;2.03;;;9.90;99.90;;;;;;5030668;28;20185;-60
2022/11/02 02:30:09;;;;;;;15.63;1.60;;;9.70;99.90;;;;;;5015400;28;20188;-60
2022/11/02 02:33:20;;;;;;;11.67;2.00;;;9.60;99.90;;;;;;5030578;28;20645;-60
2022/11/02 02:35:55;;;;;;;27.43;2.57;;;9.70;99.90;;;;;;5030439;28;20660;-60
2022/11/02 02:38:42;;;;;;;13.20;1.67;;;;;;;;;;5028821;28;20196;-60
2022/11/02 02:41:11;;;;;;;14.50;2.23;;;;;;;;;;4988790;28;20283;-60
2022/11/02 02:43:44;;;;;;;12.90;2.03;;;9.80;99.90;;;;;;5029438;28;20640;-59
2022/11/02 02:46:14;;;;;;;18.57;1.90;;;;;;;;;;5030888;28;20236;-59
2022/11/02 02:48:44;;;;;;;20.80;1.97;;;9.60;99.90;;;;;;5030425;28;20177;-59
2022/11/02 02:51:22;;;;;;;16.70;2.03;;;;;;;;;;5030877;28;20265;-59
2022/11/02 02:53:52;;;;;;;19.90;1.83;;;9.60;99.90;;;;;;5030173;28;20629;-59
2022/11/02 02:56:22;;;;;;;9.40;1.37;;;9.70;99.90;;;;;;5030071;28;20247;-60
2022/11/02 02:59:01;;;;;;;21.53;2.03;;;9.60;99.90;;;;;;5030393;28;20181;-60
2022/11/02 03:01:28;;;;;;;18.63;1.67;;;;;;;;;;5030527;28;20675;-59
2022/11/02 03:03:54;;;;;;;17.37;2.10;;;;;;;;;;5030324;28;20699;-59
2022/11/02 03:06:29;;;;;;;16.17;2.33;;;9.50;99.90;;;;;;5030634;28;20182;-59
2022/11/02 03:08:55;;;;;;;21.73;2.50;;;;;;;;;;5030149;28;20201;-58
2022/11/02 03:11:22;;;;;;;19.23;1.77;;;;;;;;;;5030555;28;20637;-59
2022/11/02 03:14:05;;;;;;;17.80;1.90;;;9.40;99.90;;;;;;5030576;28;20184;-59
2022/11/02 03:16:43;;;;;;;14.83;1.47;;;;;;;;;;5029576;28;20260;-58
2022/11/02 03:19:09;;;;;;;11.67;1.90;;;;;;;;;;5029998;28;20232;-59
2022/11/02 03:21:35;;;;;;;15.37;2.10;;;;;;;;;;5029466;28;20197;-58
2022/11/02 03:24:08;;;;;;;20.97;1.77;;;;;;;;;;5029612;28;20245;-58
2022/11/02 03:26:39;;;;;;;14.80;2.30;;;;;;;;;;5029834;28;20633;-59
2022/11/02 03:29:08;;;;;;;12.57;1.20;;;;;;;;;;5029525;28;20506;-59
2022/11/02 03:31:37;;;;;;;5.20;1.30;;;;;;;;;;5030164;28;20174;-59
2022/11/02 03:34:20;;;;;;;18.07;2.03;;;;;;;;;;5025627;28;20210;-58
2022/11/02 03:36:46;;;;;;;11.77;1.43;;;;;;;;;;5034021;28;20177;-58
2022/11/02 03:39:14;;;;;;;11.53;1.73;;;9.30;99.90;;;;;;5033990;28;20219;-58
2022/11/02 03:41:43;;;;;;;12.80;1.53;;;9.30;99.90;;;;;;5034023;28;20170;-59
2022/11/02 03:44:22;;;;;;;9.93;1.53;;;9.30;99.90;;;;;;5033961;28;20680;-58
2022/11/02 03:46:52;;;;;;;17.70;2.17;;;9.30;99.90;;;;;;5032624;28;20170;-59
2022/11/02 03:49:18;;;;;;;17.40;1.60;;;;;;;;;;5033412;28;20170;-59
2022/11/02 03:51:45;;;;;;;14.60;2.00;;;;;;;;;;5033209;28;20321;-59
2022/11/02 03:54:18;;;;;;;10.80;1.60;;;9.30;99.90;;;;;;5013992;28;20175;-59
2022/11/02 03:56:48;;;;;;;8.30;1.20;;;9.20;99.90;;;;;;5026377;28;20238;-59
2022/11/02 03:59:14;;;;;;;15.97;1.73;;;;;;;;;;5032821;28;20185;-59
2022/11/02 04:01:44;;;;;;;14.40;1.57;;;;;;;;;;5033183;28;20193;-59
2022/11/02 04:04:11;;;;;;;12.43;1.57;;;;;;;;;;5033275;28;20182;-60
2022/11/02 04:06:38;;;;;;;9.63;1.80;;;;;;;;;;5033417;28;20213;-59
2022/11/02 04:09:04;;;;;;;10.37;1.30;;;9.20;99.90;;;;;;5032631;28;20182;-59
2022/11/02 04:19:45;;;;;;;8.03;1.00;;;;;;;;;;5033276;28;20267;-59
2022/11/02 04:27:40;;;;;;;10.93;1.93;;;;;;;;;;5033027;28;20189;-59
2022/11/02 04:30:06;;;;;;;9.63;1.60;;;;;;;;;;5032957;28;20225;-59
2022/11/02 04:35:28;;;;;;;14.27;1.63;;;;;;;;;;5032952;28;20652;-59
2022/11/02 04:40:39;;;;;;;9.87;1.87;;;;;;;;;;5032112;28;20229;-59
2022/11/02 04:43:05;;;;;;;12.97;1.47;;;;;;;;;;5032698;28;20173;-60
2022/11/02 04:45:31;;;;;;;22.73;2.20;;;;;;;;;;5031663;28;20264;-59
2022/11/02 04:48:01;;;;;;;9.80;1.90;;;9.30;99.90;;;;;;5032272;28;20206;-59
2022/11/02 04:50:27;;;;;;;14.00;1.63;;;;;;;;;;5032735;28;20258;-59
2022/11/02 04:52:57;;;;;;;8.60;1.10;;;9.30;99.90;;;;;;5031988;28;20188;-60
2022/11/02 04:55:23;;;;;;;11.63;1.30;;;;;;;;;;5031780;28;20186;-59
2022/11/02 04:57:49;;;;;;;13.60;1.53;;;;;;;;;;5032319;28;20671;-59
2022/11/02 05:00:15;;;;;;;14.23;1.43;;;;;;;;;;5031287;28;20214;-59
2022/11/02 05:02:41;;;;;;;15.37;1.90;;;;;;;;;;5032338;28;20167;-59
2022/11/02 05:05:08;;;;;;;15.07;1.83;;;;;;;;;;5032423;28;20189;-59
2022/11/02 05:07:34;;;;;;;11.30;1.37;;;;;;;;;;5032189;28;20223;-59
2022/11/02 05:10:00;;;;;;;12.60;1.67;;;;;;;;;;5032039;28;20276;-61
2022/11/02 05:12:26;;;;;;;12.93;1.57;;;;;;;;;;5032082;28;20838;-59
2022/11/02 05:14:52;;;;;;;12.40;1.70;;;;;;;;;;5032176;28;20613;-59
2022/11/02 05:17:18;;;;;;;10.73;1.50;;;;;;;;;;5031918;28;20174;-60
2022/11/02 05:19:44;;;;;;;12.73;1.73;;;;;;;;;;5030820;28;20229;-60
2022/11/02 05:22:10;;;;;;;13.50;1.20;;;;;;;;;;5032252;28;20210;-59
2022/11/02 05:24:36;;;;;;;17.90;2.07;;;;;;;;;;5032021;28;20174;-60
2022/11/02 05:27:02;;;;;;;13.17;1.63;;;;;;;;;;5031841;28;20174;-60
2022/11/02 05:29:28;;;;;;;14.20;1.77;;;;;;;;;;5025458;28;20209;-59
2022/11/02 05:31:54;;;;;;;13.50;1.40;;;;;;;;;;5032053;28;20174;-59
2022/11/02 05:34:20;;;;;;;14.23;1.60;;;;;;;;;;5031906;28;20170;-59
2022/11/02 05:36:47;;;;;;;14.63;1.77;;;9.40;99.90;;;;;;5031775;28;20177;-62
2022/11/02 05:39:13;;;;;;;20.43;1.63;;;;;;;;;;5031787;28;20660;-59
2022/11/02 05:41:39;;;;;;;15.67;1.80;;;9.30;99.90;;;;;;5031641;28;20216;-59
2022/11/02 05:44:04;;;;;;;23.20;2.27;;;9.10;99.90;;;;;;5031827;28;20194;-59
2022/11/02 05:46:30;;;;;;;14.67;1.67;;;9.50;99.90;;;;;;5031855;28;20181;-59
2022/11/02 05:48:56;;;;;;;13.60;1.53;;;;;;;;;;5031731;28;20697;-60
2022/11/02 05:51:22;;;;;;;18.63;1.63;;;;;;;;;;5031495;28;20166;-60
2022/11/02 05:53:48;;;;;;;11.00;1.23;;;;;;;;;;5031691;28;20188;-60
2022/11/02 05:56:14;;;;;;;17.10;1.60;;;;;;;;;;5030746;28;20604;-60
2022/11/02 05:58:40;;;;;;;15.70;1.77;;;;;;;;;;5031059;28;20184;-60
2022/11/02 06:01:07;;;;;;;15.87;1.93;;;9.30;99.90;;;;;;5031186;28;20208;-60
2022/11/02 06:03:34;;;;;;;10.77;1.50;;;;;;;;;;5031205;28;20224;-60
2022/11/02 06:06:11;;;;;;;23.77;1.87;;;9.20;99.90;;;;;;5031564;28;20209;-60
2022/11/02 06:08:38;;;;;;;23.63;1.80;;;;;;;;;;5031295;28;20561;-60
2022/11/02 06:11:08;;;;;;;13.20;1.60;;;;;;;;;;5031315;28;20178;-60
2022/11/02 06:13:34;;;;;;;14.37;1.93;;;;;;;;;;5030759;28;20185;-60
2022/11/02 06:16:00;;;;;;;21.83;2.97;;;;;;;;;;5031059;28;20223;-60
2022/11/02 06:18:26;;;;;;;20.23;1.73;;;;;;;;;;5031241;28;20537;-60
2022/11/02 06:20:52;;;;;;;24.23;2.80;;;;;;;;;;5030090;28;20205;-59
2022/11/02 06:23:18;;;;;;;21.00;1.73;;;;;;;;;;5027041;28;20239;-60
2022/11/02 06:25:52;;;;;;;20.53;1.83;;;9.10;99.90;;;;;;5028055;28;20197;-60
2022/11/02 06:28:18;;;;;;;19.00;2.13;;;;;;;;;;5021771;28;20208;-61
2022/11/02 06:30:44;;;;;;;22.40;2.03;;;;;;;;;;5030876;28;20193;-60
2022/11/02 06:33:10;;;;;;;15.27;1.67;;;;;;;;;;5030854;28;20177;-60
2022/11/02 06:35:36;;;;;;;17.60;2.13;;;;;;;;;;5030452;28;20228;-60
2022/11/02 06:38:02;;;;;;;25.97;2.03;;;;;;;;;;5031186;28;20203;-59
2022/11/02 06:40:28;;;;;;;18.53;2.07;;;;;;;;;;5030743;28;20213;-60
2022/11/02 06:42:57;;;;;;;13.57;1.67;;;9.70;99.90;;;;;;5030084;28;20181;-59
2022/11/02 06:45:24;;;;;;;19.97;2.10;;;;;;;;;;5030815;28;20201;-60
2022/11/02 06:47:50;;;;;;;19.93;1.87;;;;;;;;;;5030978;28;20169;-60
2022/11/02 06:50:17;;;;;;;21.93;2.43;;;;;;;;;;5030909;28;20170;-59
2022/11/02 06:52:44;;;;;;;16.53;1.73;;;9.60;99.90;;;;;;5030997;28;20212;-59
2022/11/02 06:55:11;;;;;;;17.40;1.93;;;9.60;99.90;;;;;;5030638;28;20744;-59
2022/11/02 06:57:37;;;;;;;12.63;1.60;;;;;;;;;;5030663;28;20216;-59
2022/11/02 07:00:04;;;;;;;14.53;1.87;;;;;;;;;;5030478;28;20238;-59
2022/11/02 07:02:30;;;;;;;17.13;2.07;;;;;;;;;;5030492;28;20628;-59
2022/11/02 07:04:56;;;;;;;17.70;2.20;;;;;;;;;;5030117;28;20181;-59
2022/11/02 07:07:23;;;;;;;23.50;2.37;;;;;;;;;;5030765;28;20172;-59
2022/11/02 07:09:49;;;;;;;13.20;2.37;;;;;;;;;;5034338;28;20671;-60
2022/11/02 07:12:15;;;;;;;24.63;2.30;;;;;;;;;;5034713;28;20645;-59
2022/11/02 07:14:41;;;;;;;14.67;2.17;;;;;;;;;;5034504;28;20343;-59
2022/11/02 07:17:07;;;;;;;15.07;1.87;;;;;;;;;;5034591;28;20664;-59
2022/11/02 07:19:33;;;;;;;17.53;2.50;;;;;;;;;;5026732;28;20255;-59
2022/11/02 07:21:59;;;;;;;10.17;1.67;;;;;;;;;;5034230;28;20185;-59
2022/11/02 07:24:25;;;;;;;19.30;1.90;;;;;;;;;;5034363;28;20193;-59
2022/11/02 07:26:51;;;;;;;20.97;2.30;;;;;;;;;;5034283;28;20735;-59
2022/11/02 07:29:17;;;;;;;22.53;2.77;;;;;;;;;;5034038;28;20186;-59
2022/11/02 07:31:44;;;;;;;26.67;2.47;;;;;;;;;;5034089;28;20180;-60
2022/11/02 07:34:10;;;;;;;15.10;2.30;;;;;;;;;;5034345;28;20239;-60
2022/11/02 07:36:36;;;;;;;15.87;2.00;;;;;;;;;;5033723;28;20243;-59
2022/11/02 07:39:02;;;;;;;29.77;2.23;;;;;;;;;;5034009;28;20232;-59
2022/11/02 07:41:28;;;;;;;22.23;2.33;;;;;;;;;;5033865;28;20221;-59
2022/11/02 07:43:54;;;;;;;18.17;2.43;;;;;;;;;;5033692;28;20166;-59
2022/11/02 07:46:20;;;;;;;18.53;2.77;;;;;;;;;;5033850;28;20181;-59
2022/11/02 07:48:46;;;;;;;19.53;2.27;;;10.90;99.90;;;;;;5033677;28;20644;-59
2022/11/02 07:51:13;;;;;;;19.57;2.03;;;;;;;;;;5033597;28;20224;-58
2022/11/02 07:53:39;;;;;;;17.70;1.90;;;;;;;;;;5016357;28;20170;-58
2022/11/02 07:56:05;;;;;;;21.13;2.23;;;11.10;99.90;;;;;;5033557;28;20274;-60
2022/11/02 07:58:31;;;;;;;19.67;1.83;;;;;;;;;;5033778;28;20530;-60
2022/11/02 08:00:58;;;;;;;23.10;2.60;;;;;;;;;;5033323;28;20209;-61
2022/11/02 08:03:24;;;;;;;17.97;2.00;;;;;;;;;;5033365;28;20627;-60
2022/11/02 08:05:50;;;;;;;21.40;2.53;;;;;;;;;;5028284;28;20200;-61
2022/11/02 08:08:21;;;;;;;15.00;2.20;;;11.40;99.90;;;;;;5032676;28;20315;-60
2022/11/02 08:10:49;;;;;;;20.27;2.13;;;11.50;99.90;;;;;;5032496;28;20272;-61
2022/11/02 08:13:17;;;;;;;22.13;2.70;;;;;;;;;;5031662;28;20166;-69
2022/11/02 08:15:43;;;;;;;20.30;2.50;;;;;;;;;;5026117;28;20221;-77
2022/11/02 08:18:13;;;;;;;19.47;2.07;;;11.80;99.90;;;;;;5020218;28;20260;-64
2022/11/02 08:20:39;;;;;;;18.93;2.00;;;;;;;;;;5032448;28;20209;-71
2022/11/02 08:23:06;;;;;;;24.33;2.13;;;;;;;;;;5032582;28;20181;-71
2022/11/02 08:25:32;;;;;;;15.97;1.90;;;;;;;;;;5031949;28;20178;-61
2022/11/02 08:27:59;;;;;;;16.40;2.23;;;;;;;;;;5032691;28;20241;-60
2022/11/02 08:30:27;;;;;;;22.10;2.70;;;12.20;99.90;;;;;;5033180;28;20182;-60
2022/11/02 08:32:53;;;;;;;17.23;1.93;;;;;;;;;;5033124;28;20637;-60
2022/11/02 08:35:19;;;;;;;19.93;1.87;;;;;;;;;;5032125;28;20182;-60
2022/11/02 08:37:45;;;;;;;24.70;2.33;;;;;;;;;;5033055;28;20170;-60
2022/11/02 08:40:11;;;;;;;15.57;2.20;;;;;;;;;;5032589;28;20240;-60
2022/11/02 08:42:38;;;;;;;18.27;2.10;;;;;;;;;;5032592;28;20185;-59
2022/11/02 08:45:05;;;;;;;28.03;3.33;;;12.60;99.90;;;;;;5032723;28;20170;-60
2022/11/02 08:47:31;;;;;;;21.57;2.33;;;;;;;;;;5031656;28;20185;-60
2022/11/02 08:49:57;;;;;;;27.90;2.97;;;;;;;;;;5032673;28;20170;-60
2022/11/02 08:52:23;;;;;;;25.83;2.97;;;;;;;;;;5032773;28;20668;-60
2022/11/02 08:54:49;;;;;;;23.87;2.43;;;;;;;;;;5032573;28;20170;-60
2022/11/02 08:57:15;;;;;;;12.57;2.57;;;;;;;;;;5032234;28;20311;-60
2022/11/02 08:59:41;;;;;;;19.07;2.00;;;;;;;;;;5032491;28;20297;-61
2022/11/02 09:02:09;;;;;;;15.83;2.83;;;;;;;;;;5032630;28;20231;-60
2022/11/02 09:04:35;;;;;;;21.00;2.37;;;;;;;;;;5032159;28;20177;-60
2022/11/02 09:07:01;;;;;;;21.20;2.37;;;;;;;;;;5021594;28;20182;-60
2022/11/02 09:09:27;;;;;;;18.53;2.50;;;;;;;;;;5012144;28;20182;-60
2022/11/02 09:11:53;;;;;;;19.57;2.87;;;;;;;;;;5010994;28;20181;-61
2022/11/02 09:14:18;;;;;;;14.53;2.47;;;13.70;99.90;;;;;;5027881;28;20203;-62
2022/11/02 09:16:44;;;;;;;14.87;2.50;;;;;;;;;;5030970;28;20189;-61
2022/11/02 09:19:10;;;;;;;13.37;1.90;;;;;;;;;;5031618;28;20201;-60
2022/11/02 09:21:37;;;;;;;16.60;2.37;;;;;;;;;;5031397;28;20185;-61
2022/11/02 09:24:03;;;;;;;31.40;2.77;;;;;;;;;;5012904;28;20178;-64
2022/11/02 09:26:29;;;;;;;15.60;2.03;;;;;;;;;;5011836;28;20177;-60
2022/11/02 09:28:55;;;;;;;21.63;2.53;;;;;;;;;;5012114;28;20170;-59
2022/11/02 09:31:21;;;;;;;19.03;2.47;;;;;;;;;;5014601;28;20184;-59
2022/11/02 09:33:47;;;;;;;18.40;1.97;;;;;;;;;;5031803;28;20182;-59
2022/11/02 09:36:13;;;;;;;25.83;2.70;;;;;;;;;;5029876;28;20614;-59
2022/11/02 09:38:39;;;;;;;27.37;2.73;;;;;;;;;;5031545;28;20213;-59
2022/11/02 09:41:12;;;;;;;16.40;1.60;;;;;;;;;;5031338;28;20228;-60
2022/11/02 09:43:38;;;;;;;24.20;2.03;;;;;;;;;;5032025;28;20220;-60
2022/11/02 09:46:09;;;;;;;29.07;2.47;;;;;;;;;;5030746;28;20261;-60
2022/11/02 09:49:05;;;;;;;24.30;2.60;;;14.10;99.90;;;;;;5031142;28;20228;-59
2022/11/02 09:51:37;;;;;;;23.23;2.17;;;;;;;;;;5018226;28;20554;-59
2022/11/02 09:54:15;;;;;;;15.93;2.33;;;;;;;;;;5017387;28;20577;-59
2022/11/02 09:56:41;;;;;;;20.03;2.60;;;14.30;99.90;;;;;;5020233;28;20213;-59
2022/11/02 09:59:24;;;;;;;7.73;1.67;;;14.10;99.90;;;;;;5020534;28;20188;-60
2022/11/02 10:02:03;;;;;;;29.17;3.10;;;14.40;99.90;;;;;;5030865;28;20680;-60
2022/11/02 10:04:56;;;;;;;13.83;2.43;;;14.30;99.90;;;;;;5024425;28;20194;-59
2022/11/02 10:07:40;;;;;;;19.53;2.70;;;14.40;99.90;;;;;;5022346;28;20289;-59
2022/11/02 10:10:28;;;;;;;21.03;2.93;;;14.30;99.90;;;;;;5011619;28;20182;-60
2022/11/02 10:12:54;;;;;;;8.65;1.33;;;;;;;;;;5015868;28;20182;-59
2022/11/02 10:15:30;;;;;;;20.63;2.73;;;14.20;99.90;;;;;;5031521;28;20342;-59
2022/11/02 10:17:59;;;;;;;22.60;2.77;;;14.40;99.90;;;;;;5031265;28;20265;-59
2022/11/02 10:20:25;;;;;;;24.37;3.20;;;;;;;;;;5030873;28;20205;-60
2022/11/02 10:22:52;;;;;;;23.00;2.80;;;;;;;;;;5030955;28;20232;-59
2022/11/02 10:25:18;;;;;;;17.83;2.23;;;;;;;;;;5030715;28;20655;-60
2022/11/02 10:27:48;;;;;;;29.03;2.40;;;14.40;99.90;;;;;;5030494;28;20195;-60
2022/11/02 10:30:19;;;;;;;18.03;2.90;;;14.10;99.90;;;;;;5030001;28;20181;-59
2022/11/02 10:32:48;;;;;;;17.20;2.70;;;;;;;;;;5030227;28;20171;-60
2022/11/02 10:35:50;;;;;;;23.97;2.97;;;14.30;99.90;;;;;;5030732;28;20648;-60
2022/11/02 10:38:34;;;;;;;20.07;2.37;;;14.20;99.90;;;;;;5030943;28;20213;-59
2022/11/02 10:41:17;;;;;;;25.50;3.60;;;;;;;;;;5030722;28;20715;-59
2022/11/02 10:44:04;;;;;;;14.87;2.53;;;14.30;99.90;;;;;;5034231;28;20255;-59
2022/11/02 10:46:30;;;;;;;22.07;2.73;;;;;;;;;;5035163;28;20668;-61
2022/11/02 10:49:21;;;;;;;28.20;3.77;;;14.40;99.90;;;;;;5035228;28;20264;-59
2022/11/02 10:51:47;;;;;;;24.60;3.50;;;;;;;;;;5035077;28;20181;-59
2022/11/02 10:54:15;;;;;;;19.37;2.50;;;;;;;;;;5034981;28;20318;-60
2022/11/02 10:56:42;;;;;;;16.23;2.20;;;14.30;99.90;;;;;;5034771;28;20700;-59
2022/11/02 10:59:16;;;;;;;15.10;2.43;;;14.30;99.90;;;;;;5035023;28;20186;-60
2022/11/02 11:02:03;;;;;;;17.50;2.93;;;14.10;99.90;;;;;;5017178;28;20196;-59
2022/11/02 11:04:33;;;;;;;29.20;4.17;;;14.40;99.90;;;;;;5034679;28;20182;-60
2022/11/02 11:07:05;;;;;;;14.97;2.33;;;14.40;99.90;;;;;;5034777;28;20632;-59
2022/11/02 11:09:39;;;;;;;20.20;2.85;;;;;;;;;;5017011;28;20209;-59
2022/11/02 11:12:28;;;;;;;25.10;3.33;;;14.80;99.90;;;;;;5034679;28;20239;-60
2022/11/02 11:14:58;;;;;;;21.60;2.67;;;;;;;;;;5034598;28;20181;-59
2022/11/02 11:17:32;;;;;;;22.60;2.70;;;14.80;99.90;;;;;;5034621;28;20182;-59
2022/11/02 11:19:59;;;;;;;17.38;3.35;;;;;;;;;;5034422;28;20216;-60
2022/11/02 11:22:28;;;;;;;25.88;2.53;;;15.10;99.90;;;;;;5034498;28;20174;-61
2022/11/02 11:25:18;;;;;;;38.40;4.30;;;15.10;99.90;;;;;;5034414;28;20610;-59
2022/11/02 11:27:44;;;;;;;39.63;4.07;;;;;;;;;;5034269;28;20198;-59
2022/11/02 11:30:30;;;;;;;22.95;3.40;;;15.90;99.90;;;;;;5034406;28;20193;-60
2022/11/02 11:32:57;;;;;;;18.25;3.15;;;16.00;99.90;;;;;;5034196;28;20260;-59
2022/11/02 11:35:36;;;;;;;30.60;3.88;;;16.30;99.90;;;;;;5034246;28;20228;-59
2022/11/02 11:38:05;;;;;;;20.52;3.15;;;;;;;;;;5034320;28;20173;-59
2022/11/02 11:40:34;;;;;;;25.80;4.03;;;;;;;;;;5034126;28;20213;-59
2022/11/02 11:43:01;;;;;;;18.40;2.55;;;;;;;;;;5034078;28;20191;-60
2022/11/02 11:45:30;;;;;;;23.85;3.20;;;16.30;99.90;;;;;;5034044;28;20652;-60
2022/11/02 11:48:19;;;;;;;20.13;2.60;;;16.10;99.90;;;;;;5033913;28;20162;-61
2022/11/02 11:50:48;;;;;;;17.65;3.00;;;;;;;;;;5033836;28;20175;-60
2022/11/02 11:53:26;;;;;;;24.73;3.93;;;;;;;;;;5033462;28;20166;-60
2022/11/02 11:55:57;;;;;;;19.58;3.08;;;15.60;99.90;;;;;;5033434;28;20217;-60
2022/11/02 11:58:27;;;;;;;26.95;4.25;;;15.10;99.90;;;;;;5033522;28;20165;-61
2022/11/02 12:01:05;;;;;;;19.83;2.78;;;;;;;;;;5033950;28;20209;-61
2022/11/02 12:03:32;;;;;;;33.95;3.72;;;;;;;;;;5033436;28;20170;-60
2022/11/02 12:06:34;;;;;;;20.65;2.50;;;14.80;99.90;;;;;;5033753;28;20662;-60
2022/11/02 12:09:12;;;;;;;22.17;2.78;;;;;;;;;;5023009;28;20190;-60
2022/11/02 12:11:43;;;;;;;16.08;2.50;;;14.90;99.90;;;;;;5033453;28;20166;-60
2022/11/02 12:14:28;;;;;;;28.03;4.33;;;;;;;;;;5033561;28;20178;-61
2022/11/02 12:17:14;;;;;;;19.95;3.08;;;15.00;99.90;;;;;;5033423;28;20174;-61
2022/11/02 12:19:40;;;;;;;17.83;2.22;;;;;;;;;;5033361;28;20239;-61
2022/11/02 12:22:18;;;;;;;18.77;3.27;;;14.90;99.90;;;;;;5033319;28;20240;-60
2022/11/02 12:25:03;;;;;;;29.27;3.33;;;;;;;;;;5033299;28;20258;-61
2022/11/02 12:27:29;;;;;;;17.00;2.70;;;;;;;;;;5033140;28;20647;-60
2022/11/02 12:29:56;;;;;;;19.40;2.80;;;;;;;;;;5033083;28;20842;-61
2022/11/02 12:32:34;;;;;;;16.30;2.17;;;;;;;;;;5033298;28;20231;-61
2022/11/02 12:35:26;;;;;;;19.38;2.95;;;;;;;;;;5033244;28;20304;-62
2022/11/02 12:37:58;;;;;;;16.13;2.78;;;15.10;99.90;;;;;;5002850;28;20654;-61
2022/11/02 12:40:50;;;;;;;15.02;2.60;;;15.00;99.90;;;;;;5032522;28;20210;-62
2022/11/02 12:43:19;;;;;;;29.38;3.70;;;;;;;;;;5020343;28;20718;-61
2022/11/02 12:45:47;;;;;;;24.42;3.45;;;;;;;;;;5030190;28;20177;-61
2022/11/02 12:48:40;;;;;;;20.92;2.55;;;15.10;99.90;;;;;;5033098;28;20174;-60
2022/11/02 12:51:12;;;;;;;23.02;3.35;;;;;;;;;;5016219;28;20205;-59
2022/11/02 12:53:38;;;;;;;11.45;1.48;;;;;;;;;;5031261;28;20640;-60
2022/11/02 12:56:06;;;;;;;30.50;2.70;;;;;;;;;;5031088;28;20245;-61
2022/11/02 12:58:37;;;;;;;22.77;3.30;;;15.20;99.90;;;;;;5009879;28;20244;-60
2022/11/02 13:01:30;;;;;;;10.27;2.57;;;15.20;99.90;;;;;;5031103;28;20220;-60
2022/11/02 13:04:40;;;;;;;21.15;3.15;;;15.10;99.90;;;;;;5032482;28;20587;-63
2022/11/02 13:07:10;;;;;;;22.00;3.60;;;;;;;;;;5004618;28;20189;-61
2022/11/02 13:09:38;;;;;;;18.70;3.13;;;;;;;;;;5032005;28;20174;-62
2022/11/02 13:12:08;;;;;;;18.83;1.77;;;;;;;;;;5031779;28;20185;-63
2022/11/02 13:14:48;;;;;;;23.02;2.85;;;15.00;99.90;;;;;;5014432;28;20178;-62
2022/11/02 13:17:20;;;;;;;25.35;3.03;;;;;;;;;;5031906;28;20170;-61
2022/11/02 13:19:49;;;;;;;16.80;1.75;;;;;;;;;;5031547;28;20217;-62
2022/11/02 13:22:19;;;;;;;11.02;2.22;;;14.90;99.90;;;;;;5032030;28;20540;-61
2022/11/02 13:24:51;;;;;;;24.27;3.00;;;14.90;99.90;;;;;;5031911;28;20178;-60
2022/11/02 13:27:37;;;;;;;22.80;3.15;;;;;;;;;;5031133;28;20652;-60
2022/11/02 13:30:14;;;;;;;14.25;1.88;;;15.00;99.90;;;;;;5031744;28;20206;-59
2022/11/02 13:32:42;;;;;;;20.67;3.63;;;;;;;;;;5030990;28;20173;-61
2022/11/02 13:35:18;;;;;;;18.52;2.50;;;;;;;;;;5022978;28;20257;-61
2022/11/02 13:37:46;;;;;;;20.00;2.22;;;;;;;;;;5007036;28;20170;-63
2022/11/02 13:40:21;;;;;;;19.67;3.28;;;;;;;;;;5011924;28;20233;-62
2022/11/02 13:43:14;;;;;;;22.67;4.53;;;;;;;;;;5000287;28;20227;-59
2022/11/02 13:45:49;;;;;;;23.33;2.35;;;15.00;99.90;;;;;;5024741;28;20192;-61
2022/11/02 13:48:52;;;;;;;20.05;2.70;;;15.00;99.90;;;;;;5031568;28;20212;-58
2022/11/02 13:51:30;;;;;;;17.65;3.38;;;;;;;;;;5023107;28;20186;-61
2022/11/02 13:54:07;;;;;;;24.83;3.63;;;14.90;99.90;;;;;;5028598;28;20200;-61
2022/11/02 13:56:35;;;;;;;14.80;2.08;;;14.90;99.90;;;;;;5029965;28;20216;-59
2022/11/02 13:59:03;;;;;;;19.10;1.97;;;;;;;;;;5030446;28;20162;-59
2022/11/02 14:01:31;;;;;;;25.42;3.25;;;;;;;;;;5029747;28;20241;-60
2022/11/02 14:04:00;;;;;;;21.75;3.05;;;15.00;99.90;;;;;;5031103;28;20251;-58
2022/11/02 14:06:26;;;;;;;16.08;3.10;;;;;;;;;;5031387;28;20209;-61
2022/11/02 14:09:04;;;;;;;13.35;2.47;;;;;;;;;;5030222;28;20177;-59
2022/11/02 14:11:41;;;;;;;10.70;2.22;;;14.90;99.90;;;;;;5031150;28;20210;-59
2022/11/02 14:14:07;;;;;;;19.33;3.50;;;;;;;;;;5031247;28;20173;-59
2022/11/02 14:16:39;;;;;;;22.73;3.50;;;;;;;;;;5030919;28;20174;-60
2022/11/02 14:19:17;;;;;;;23.92;3.08;;;15.00;99.90;;;;;;5030767;28;20180;-60
2022/11/02 14:21:58;;;;;;;18.27;2.15;;;15.00;99.90;;;;;;5030659;28;20664;-60
2022/11/02 14:24:34;;;;;;;16.63;2.67;;;;;;;;;;5013128;28;20178;-58
2022/11/02 14:27:17;;;;;;;26.52;3.63;;;;;;;;;;5030392;28;20169;-59
2022/11/02 14:29:43;;;;;;;29.80;4.18;;;;;;;;;;5030319;28;20188;-62
2022/11/02 14:32:16;;;;;;;19.02;2.70;;;;;;;;;;5009651;28;20217;-61